createdAt,value
2019-05-09T00:01:47.786Z,1.30
2019-05-09T00:04:16.742Z,1.17
2019-05-09T00:06:45.660Z,1.40
2019-05-09T00:09:17.970Z,1.33
2019-05-09T00:11:47.176Z,1.30
2019-05-09T00:14:16.182Z,1.10
2019-05-09T00:16:45.121Z,1.70
2019-05-09T00:19:14.066Z,0.93
2019-05-09T00:21:44.689Z,1.07
2019-05-09T00:24:14.051Z,0.83
2019-05-09T00:26:44.268Z,0.87
2019-05-09T00:29:19.300Z,0.80
2019-05-09T00:31:55.133Z,0.73
2019-05-09T00:34:34.470Z,0.77
2019-05-09T00:37:03.437Z,0.90
2019-05-09T00:39:34.105Z,0.70
2019-05-09T00:42:04.341Z,0.60
2019-05-09T00:44:35.272Z,0.50
2019-05-09T00:47:10.793Z,0.47
2019-05-09T00:49:39.661Z,0.40
2019-05-09T00:52:08.592Z,0.53
2019-05-09T00:54:37.483Z,0.60
2019-05-09T00:57:06.494Z,0.40
2019-05-09T00:59:35.434Z,0.50
2019-05-09T01:02:04.765Z,0.90
2019-05-09T01:04:33.945Z,0.30
2019-05-09T01:07:03.596Z,0.40
2019-05-09T01:09:33.421Z,0.50
2019-05-09T01:12:04.156Z,0.40
2019-05-09T01:14:34.067Z,0.67
2019-05-09T01:17:04.199Z,0.43
2019-05-09T01:19:33.870Z,0.50
2019-05-09T01:22:03.850Z,0.50
2019-05-09T01:24:33.774Z,0.50
2019-05-09T01:27:03.574Z,0.73
2019-05-09T01:29:33.736Z,0.40
2019-05-09T01:32:05.973Z,0.70
2019-05-09T01:34:35.368Z,0.50
2019-05-09T01:37:05.625Z,0.47
2019-05-09T01:39:35.773Z,0.30
2019-05-09T01:42:05.751Z,0.60
2019-05-09T01:44:34.874Z,0.50
2019-05-09T01:47:04.152Z,0.70
2019-05-09T01:49:34.216Z,0.60
2019-05-09T01:52:04.094Z,0.50
2019-05-09T01:54:34.818Z,0.60
2019-05-09T01:57:04.309Z,0.50
2019-05-09T01:59:34.159Z,0.70
2019-05-09T02:02:08.160Z,0.60
2019-05-09T02:04:34.641Z,0.60
2019-05-09T02:07:04.241Z,0.63
2019-05-09T02:09:34.291Z,0.60
2019-05-09T02:12:04.159Z,0.60
2019-05-09T02:15:07.878Z,0.60
2019-05-09T02:17:58.893Z,0.57
2019-05-09T02:20:24.175Z,0.50
2019-05-09T02:22:54.220Z,0.40
2019-05-09T02:25:24.239Z,0.50
2019-05-09T02:27:55.255Z,0.70
2019-05-09T02:30:25.578Z,0.70
2019-05-09T02:32:54.890Z,0.60
2019-05-09T02:35:24.063Z,0.47
2019-05-09T02:37:53.026Z,0.53
2019-05-09T02:40:22.334Z,1.00
2019-05-09T02:42:51.222Z,0.67
2019-05-09T02:45:21.318Z,0.70
2019-05-09T02:47:50.750Z,0.80
2019-05-09T02:50:19.899Z,0.70
2019-05-09T02:52:48.962Z,0.60
2019-05-09T02:55:18.607Z,0.57
2019-05-09T02:57:49.548Z,0.60
2019-05-09T03:00:32.339Z,0.53
2019-05-09T03:03:09.437Z,0.60
2019-05-09T03:05:38.818Z,0.60
2019-05-09T03:08:09.067Z,0.60
2019-05-09T03:10:38.549Z,0.70
2019-05-09T03:13:09.090Z,0.40
2019-05-09T03:15:39.368Z,0.70
2019-05-09T03:18:09.364Z,0.50
2019-05-09T03:21:04.037Z,0.67
2019-05-09T03:23:33.073Z,0.50
2019-05-09T03:26:02.238Z,0.50
2019-05-09T03:28:59.123Z,0.60
2019-05-09T03:31:29.791Z,0.70
2019-05-09T03:33:59.802Z,0.60
2019-05-09T03:36:28.956Z,0.83
2019-05-09T03:38:57.925Z,0.60
2019-05-09T03:41:28.224Z,0.50
2019-05-09T03:43:58.559Z,0.50
2019-05-09T03:46:38.501Z,0.60
2019-05-09T03:49:07.994Z,0.70
2019-05-09T03:51:37.938Z,0.70
2019-05-09T03:54:08.067Z,0.70
2019-05-09T03:56:41.105Z,0.70
2019-05-09T03:59:10.041Z,0.60
2019-05-09T04:01:39.138Z,0.90
2019-05-09T04:04:08.898Z,0.60
2019-05-09T04:06:39.150Z,0.90
2019-05-09T04:09:08.479Z,1.10
2019-05-09T04:11:38.123Z,0.60
2019-05-09T04:14:11.021Z,0.90
2019-05-09T04:16:40.104Z,0.80
2019-05-09T04:19:09.233Z,0.57
2019-05-09T04:21:38.397Z,0.80
2019-05-09T04:24:08.507Z,0.90
2019-05-09T04:26:48.296Z,1.00
2019-05-09T04:29:18.408Z,1.00
2019-05-09T04:31:48.367Z,0.60
2019-05-09T04:34:18.597Z,0.50
2019-05-09T04:36:48.482Z,0.83
2019-05-09T04:39:21.865Z,1.00
2019-05-09T04:41:49.092Z,1.30
2019-05-09T04:44:49.582Z,1.10
2019-05-09T04:47:17.406Z,0.83
2019-05-09T04:49:47.912Z,1.47
2019-05-09T04:52:18.083Z,0.80
2019-05-09T04:54:48.461Z,0.70
2019-05-09T04:57:17.975Z,0.80
2019-05-09T04:59:47.593Z,0.80
2019-05-09T05:02:27.598Z,1.13
2019-05-09T05:04:58.571Z,0.80
2019-05-09T05:07:28.727Z,1.20
2019-05-09T05:09:58.172Z,1.30
2019-05-09T05:12:27.730Z,1.10
2019-05-09T05:14:58.107Z,1.23
2019-05-09T05:17:28.298Z,1.23
2019-05-09T05:19:58.508Z,1.20
2019-05-09T05:22:33.274Z,1.10
2019-05-09T05:25:03.787Z,0.70
2019-05-09T05:27:32.879Z,0.70
2019-05-09T05:30:01.902Z,1.23
2019-05-09T05:32:49.841Z,0.80
2019-05-09T05:35:25.097Z,1.10
2019-05-09T05:37:53.936Z,0.90
2019-05-09T05:40:23.052Z,0.60
2019-05-09T05:42:52.175Z,0.87
2019-05-09T05:45:21.290Z,0.97
2019-05-09T05:47:54.394Z,0.77
2019-05-09T05:50:23.442Z,0.70
2019-05-09T05:52:52.605Z,0.70
2019-05-09T05:55:21.540Z,0.70
2019-05-09T05:57:50.636Z,0.73
2019-05-09T06:00:22.448Z,0.80
2019-05-09T06:02:51.741Z,0.60
2019-05-09T06:05:20.633Z,0.60
2019-05-09T06:07:49.679Z,0.67
2019-05-09T06:10:19.013Z,0.57
2019-05-09T06:12:48.377Z,0.70
2019-05-09T06:15:18.349Z,0.50
2019-05-09T06:17:48.456Z,0.78
2019-05-09T06:20:18.032Z,0.57
2019-05-09T06:22:47.690Z,0.40
2019-05-09T06:25:20.758Z,0.70
2019-05-09T06:27:48.342Z,0.40
2019-05-09T06:30:28.688Z,0.40
2019-05-09T06:32:58.334Z,0.30
2019-05-09T06:35:28.317Z,0.50
2019-05-09T06:37:58.832Z,0.57
2019-05-09T06:40:28.953Z,0.53
2019-05-09T06:42:59.319Z,0.57
2019-05-09T06:45:41.438Z,0.45
2019-05-09T06:48:08.994Z,0.50
2019-05-09T06:50:37.990Z,0.47
2019-05-09T06:53:08.075Z,0.72
2019-05-09T06:55:38.542Z,0.65
2019-05-09T06:58:27.568Z,0.70
2019-05-09T07:01:02.994Z,0.53
2019-05-09T07:03:32.138Z,0.50
2019-05-09T07:06:14.474Z,0.60
2019-05-09T07:08:50.652Z,0.60
2019-05-09T07:11:19.737Z,0.53
2019-05-09T07:13:49.014Z,0.60
2019-05-09T07:16:18.753Z,0.50
2019-05-09T07:18:48.426Z,0.45
2019-05-09T07:21:18.988Z,0.45
2019-05-09T07:23:48.256Z,0.60
2019-05-09T07:26:19.958Z,0.65
2019-05-09T07:28:49.223Z,0.80
2019-05-09T07:31:31.101Z,0.72
2019-05-09T07:34:13.937Z,0.53
2019-05-09T07:37:02.110Z,0.65
2019-05-09T07:39:31.485Z,0.72
2019-05-09T07:42:00.426Z,0.50
2019-05-09T07:44:44.267Z,0.50
2019-05-09T07:47:02.282Z,0.62
2019-05-09T07:49:32.833Z,0.70
2019-05-09T07:52:06.839Z,0.33
2019-05-09T07:54:32.490Z,0.60
2019-05-09T07:57:01.575Z,0.57
2019-05-09T07:59:30.693Z,0.40
2019-05-09T08:01:59.709Z,0.68
2019-05-09T08:04:28.853Z,0.60
2019-05-09T08:06:58.200Z,0.85
2019-05-09T08:09:28.150Z,0.78
2019-05-09T08:11:58.702Z,0.70
2019-05-09T08:14:28.179Z,0.50
2019-05-09T08:16:58.021Z,0.70
2019-05-09T08:19:27.664Z,0.50
2019-05-09T08:21:57.541Z,0.40
2019-05-09T08:24:27.808Z,0.35
2019-05-09T08:26:58.121Z,0.40
2019-05-09T08:29:28.166Z,0.72
2019-05-09T08:31:58.296Z,0.50
2019-05-09T08:34:28.456Z,0.57
2019-05-09T08:36:58.202Z,0.50
2019-05-09T08:39:27.837Z,0.50
2019-05-09T08:41:59.283Z,0.40
2019-05-09T08:44:30.416Z,0.50
2019-05-09T08:46:58.776Z,0.68
2019-05-09T08:49:37.428Z,0.55
2019-05-09T08:52:16.157Z,0.53
2019-05-09T08:54:43.603Z,0.60
2019-05-09T08:57:12.711Z,0.60
2019-05-09T08:59:41.585Z,0.60
2019-05-09T09:02:15.434Z,0.68
2019-05-09T09:04:41.288Z,0.60
2019-05-09T09:07:10.304Z,0.50
2019-05-09T09:09:39.138Z,0.55
2019-05-09T09:12:25.173Z,0.50
2019-05-09T09:14:38.872Z,0.70
2019-05-09T09:17:08.072Z,0.60
2019-05-09T09:19:38.570Z,0.75
2019-05-09T09:22:08.860Z,0.60
2019-05-09T09:24:38.155Z,0.70
2019-05-09T09:27:07.691Z,0.90
2019-05-09T09:29:38.072Z,0.72
2019-05-09T09:32:08.331Z,0.70
2019-05-09T09:34:38.006Z,0.88
2019-05-09T09:37:11.234Z,1.12
2019-05-09T09:39:44.312Z,0.70
2019-05-09T09:42:09.181Z,0.90
2019-05-09T09:44:39.339Z,0.70
2019-05-09T09:47:08.701Z,0.93
2019-05-09T09:49:38.665Z,0.70
2019-05-09T09:52:08.694Z,0.93
2019-05-09T09:54:38.753Z,0.53
2019-05-09T09:57:09.669Z,0.70
2019-05-09T10:00:03.534Z,0.72
2019-05-09T10:02:37.304Z,0.68
2019-05-09T10:05:07.781Z,0.53
2019-05-09T10:07:38.427Z,0.55
2019-05-09T10:10:08.000Z,0.50
2019-05-09T10:12:43.565Z,0.80
2019-05-09T10:15:18.749Z,0.60
2019-05-09T10:18:12.057Z,0.70
2019-05-09T10:20:59.981Z,0.60
2019-05-09T10:23:31.918Z,0.70
2019-05-09T10:26:00.762Z,0.65
2019-05-09T10:28:30.190Z,0.53
2019-05-09T10:30:59.453Z,0.50
2019-05-09T10:33:28.351Z,0.78
2019-05-09T10:36:04.515Z,0.78
2019-05-09T10:38:28.096Z,1.10
2019-05-09T10:41:01.146Z,1.37
2019-05-09T10:43:39.000Z,0.62
2019-05-09T10:46:52.862Z,0.60
2019-05-09T10:49:14.341Z,0.70
2019-05-09T10:51:43.422Z,0.72
2019-05-09T10:54:12.477Z,0.70
2019-05-09T10:56:41.391Z,0.60
2019-05-09T10:59:10.554Z,0.57
2019-05-09T11:01:39.471Z,0.50
2019-05-09T11:04:08.573Z,0.85
2019-05-09T11:06:38.435Z,0.82
2019-05-09T11:09:09.009Z,0.78
2019-05-09T11:11:38.214Z,0.60
2019-05-09T11:14:08.531Z,0.60
2019-05-09T11:16:45.747Z,0.50
2019-05-09T11:19:08.571Z,0.60
2019-05-09T11:21:39.189Z,0.53
2019-05-09T11:24:08.661Z,0.35
2019-05-09T11:26:39.844Z,0.60
2019-05-09T11:29:08.379Z,0.72
2019-05-09T11:31:38.374Z,0.60
2019-05-09T11:34:08.923Z,0.70
2019-05-09T11:36:41.056Z,0.37
2019-05-09T11:39:10.889Z,0.50
2019-05-09T11:41:40.059Z,0.95
2019-05-09T11:44:09.103Z,0.93
2019-05-09T11:46:38.369Z,0.47
2019-05-09T11:49:08.737Z,0.40
2019-05-09T11:51:37.657Z,0.50
2019-05-09T11:54:09.083Z,0.50
2019-05-09T11:56:38.466Z,0.90
2019-05-09T11:59:08.025Z,0.60
2019-05-09T12:01:39.618Z,0.67
2019-05-09T12:04:08.132Z,0.63
2019-05-09T12:06:38.307Z,0.50
2019-05-09T12:09:08.718Z,0.60
2019-05-09T12:11:41.301Z,0.60
2019-05-09T12:14:09.044Z,0.50
2019-05-09T12:16:38.251Z,0.63
2019-05-09T12:19:07.523Z,0.90
2019-05-09T12:21:44.980Z,0.60
2019-05-09T12:24:09.074Z,0.57
2019-05-09T12:26:39.086Z,0.40
2019-05-09T12:29:08.936Z,0.60
2019-05-09T12:31:38.741Z,1.35
2019-05-09T12:34:09.091Z,0.53
2019-05-09T12:36:39.803Z,0.40
2019-05-09T12:39:09.417Z,0.40
2019-05-09T12:41:38.657Z,0.68
2019-05-09T12:44:08.787Z,0.40
2019-05-09T12:46:39.333Z,0.65
2019-05-09T12:49:09.028Z,0.40
2019-05-09T12:51:38.087Z,0.60
2019-05-09T12:54:08.451Z,0.55
2019-05-09T12:56:38.525Z,0.60
2019-05-09T12:59:08.792Z,0.60
2019-05-09T13:01:40.804Z,0.50
2019-05-09T13:04:09.689Z,0.50
2019-05-09T13:06:38.871Z,0.30
2019-05-09T13:09:08.471Z,0.45
2019-05-09T13:11:39.023Z,0.40
2019-05-09T13:14:10.108Z,0.72
2019-05-09T13:16:57.588Z,0.40
2019-05-09T13:19:30.933Z,0.40
2019-05-09T13:21:59.754Z,0.37
2019-05-09T13:24:28.670Z,0.20
2019-05-09T13:26:57.506Z,0.47
2019-05-09T13:29:26.410Z,0.40
2019-05-09T13:31:57.557Z,0.40
2019-05-09T13:34:28.221Z,0.40
2019-05-09T13:36:59.035Z,0.30
2019-05-09T13:39:28.026Z,0.30
2019-05-09T13:41:58.225Z,0.70
2019-05-09T13:44:27.845Z,0.50
2019-05-09T13:46:58.408Z,0.45
2019-05-09T13:49:28.597Z,0.30
2019-05-09T13:52:04.212Z,0.30
2019-05-09T13:54:28.814Z,0.40
2019-05-09T13:57:01.041Z,0.40
2019-05-09T13:59:30.015Z,0.57
2019-05-09T14:01:59.055Z,0.33
2019-05-09T14:04:29.360Z,0.60
2019-05-09T14:06:58.198Z,0.53
2019-05-09T14:09:29.161Z,0.33
2019-05-09T14:11:58.974Z,0.40
2019-05-09T14:14:28.257Z,0.50
2019-05-09T14:16:59.276Z,0.70
2019-05-09T14:19:39.605Z,0.30
2019-05-09T14:21:58.793Z,0.50
2019-05-09T14:24:28.060Z,0.40
2019-05-09T14:26:58.219Z,0.55
2019-05-09T14:29:31.617Z,0.25
2019-05-09T14:31:57.929Z,0.70
2019-05-09T14:34:26.801Z,0.80
2019-05-09T14:36:58.453Z,0.40
2019-05-09T14:39:27.655Z,0.57
2019-05-09T14:41:57.890Z,0.95
2019-05-09T14:44:27.712Z,0.30
2019-05-09T14:46:58.402Z,0.70
2019-05-09T14:49:39.627Z,0.33
2019-05-09T14:51:58.133Z,0.60
2019-05-09T14:54:28.841Z,0.55
2019-05-09T14:56:58.436Z,0.40
2019-05-09T14:59:28.580Z,0.42
2019-05-09T15:01:59.135Z,0.50
2019-05-09T15:04:28.317Z,0.45
2019-05-09T15:06:57.993Z,0.50
2019-05-09T15:09:28.459Z,0.55
2019-05-09T15:11:58.477Z,0.30
2019-05-09T15:14:28.921Z,0.50
2019-05-09T15:16:57.894Z,0.42
2019-05-09T15:19:28.705Z,0.40
2019-05-09T15:22:00.396Z,0.60
2019-05-09T15:24:28.667Z,0.30
2019-05-09T15:26:58.152Z,0.50
2019-05-09T15:29:28.975Z,0.78
2019-05-09T15:32:05.171Z,0.40
2019-05-09T15:34:28.625Z,0.40
2019-05-09T15:36:58.261Z,0.35
2019-05-09T15:39:27.886Z,0.25
2019-05-09T15:41:58.005Z,0.50
2019-05-09T15:44:27.150Z,0.35
2019-05-09T15:47:01.598Z,0.35
2019-05-09T15:49:30.477Z,0.20
2019-05-09T15:51:59.561Z,0.23
2019-05-09T15:54:29.399Z,0.30
2019-05-09T15:56:58.510Z,0.40
2019-05-09T15:59:28.231Z,0.57
2019-05-09T16:01:58.417Z,0.40
2019-05-09T16:04:28.120Z,0.37
2019-05-09T16:06:57.235Z,0.57
2019-05-09T16:09:28.619Z,0.33
2019-05-09T16:11:57.346Z,0.45
2019-05-09T16:14:27.639Z,0.37
2019-05-09T16:16:56.982Z,0.82
2019-05-09T16:19:25.838Z,0.45
2019-05-09T16:21:54.672Z,0.55
2019-05-09T16:24:23.531Z,0.75
2019-05-09T16:26:52.441Z,3.10
2019-05-09T16:29:21.403Z,0.57
2019-05-09T16:31:50.309Z,0.60
2019-05-09T16:34:19.207Z,0.40
2019-05-09T16:36:48.325Z,0.60
2019-05-09T16:39:18.137Z,0.45
2019-05-09T16:41:48.438Z,0.53
2019-05-09T16:44:18.448Z,0.90
2019-05-09T16:46:48.618Z,1.47
2019-05-09T16:49:19.875Z,1.00
2019-05-09T16:51:48.888Z,0.67
2019-05-09T16:54:18.291Z,0.60
2019-05-09T16:56:47.379Z,1.20
2019-05-09T16:59:17.946Z,0.90
2019-05-09T17:01:50.080Z,1.00
2019-05-09T17:04:19.241Z,0.83
2019-05-09T17:06:49.722Z,0.60
2019-05-09T17:09:19.070Z,1.10
2019-05-09T17:11:48.213Z,0.80
2019-05-09T17:14:19.340Z,1.00
2019-05-09T17:16:52.618Z,0.90
2019-05-09T17:19:19.678Z,1.20
2019-05-09T17:21:58.533Z,1.00
2019-05-09T17:24:29.700Z,0.80
2019-05-09T17:26:58.391Z,1.00
2019-05-09T17:29:28.044Z,0.80
2019-05-09T17:31:58.451Z,0.87
2019-05-09T17:34:28.725Z,0.97
2019-05-09T17:36:58.201Z,1.20
2019-05-09T17:39:27.860Z,1.00
2019-05-09T17:41:58.261Z,1.10
2019-05-09T17:44:28.145Z,1.03
2019-05-09T17:46:58.158Z,1.50
2019-05-09T17:49:28.091Z,1.00
2019-05-09T17:51:58.473Z,1.43
2019-05-09T17:54:28.721Z,1.17
2019-05-09T17:56:58.231Z,1.40
2019-05-09T17:59:29.306Z,1.30
2019-05-09T18:01:58.070Z,1.20
2019-05-09T18:04:28.739Z,1.10
2019-05-09T18:06:58.522Z,1.10
2019-05-09T18:09:28.569Z,1.10
2019-05-09T18:11:58.026Z,1.10
2019-05-09T18:14:27.648Z,1.93
2019-05-09T18:16:58.195Z,1.40
2019-05-09T18:19:29.396Z,1.23
2019-05-09T18:21:58.070Z,1.10
2019-05-09T18:24:28.747Z,0.97
2019-05-09T18:26:58.425Z,0.90
2019-05-09T18:29:27.725Z,1.23
2019-05-09T18:32:07.754Z,1.03
2019-05-09T18:34:37.972Z,1.47
2019-05-09T18:37:08.022Z,1.30
2019-05-09T18:39:37.612Z,1.33
2019-05-09T18:42:08.711Z,1.33
2019-05-09T18:44:37.213Z,1.13
2019-05-09T18:47:07.854Z,1.10
2019-05-09T18:49:36.870Z,1.30
2019-05-09T18:52:06.009Z,1.20
2019-05-09T18:54:35.127Z,1.00
2019-05-09T18:57:04.090Z,1.27
2019-05-09T18:59:33.138Z,1.13
2019-05-09T19:02:02.118Z,1.10
2019-05-09T19:04:31.171Z,1.17
2019-05-09T19:07:00.090Z,1.10
2019-05-09T19:09:29.107Z,1.00
2019-05-09T19:11:58.031Z,1.03
2019-05-09T19:14:27.082Z,1.30
2019-05-09T19:17:18.098Z,1.23
2019-05-09T19:20:04.105Z,1.03
2019-05-09T19:22:32.970Z,1.40
2019-05-09T19:25:01.797Z,1.37
2019-05-09T19:27:30.712Z,1.13
2019-05-09T19:29:59.538Z,1.40
2019-05-09T19:32:28.462Z,1.10
2019-05-09T19:34:57.530Z,1.10
2019-05-09T19:37:26.694Z,1.07
2019-05-09T19:39:55.553Z,0.87
2019-05-09T19:42:24.463Z,0.97
2019-05-09T19:44:53.628Z,1.20
2019-05-09T19:47:22.538Z,1.00
2019-05-09T19:49:51.563Z,1.10
2019-05-09T19:52:20.450Z,1.27
2019-05-09T19:54:49.525Z,0.90
2019-05-09T19:57:18.353Z,1.00
2019-05-09T19:59:47.192Z,1.07
2019-05-09T20:02:16.320Z,0.93
2019-05-09T20:04:45.480Z,0.80
2019-05-09T20:07:14.717Z,0.80
2019-05-09T20:09:49.370Z,1.10
2019-05-09T20:12:37.261Z,0.90
2019-05-09T20:15:06.602Z,0.80
2019-05-09T20:17:35.812Z,0.90
2019-05-09T20:20:04.953Z,0.70
2019-05-09T20:22:33.891Z,0.80
2019-05-09T20:25:02.822Z,0.93
2019-05-09T20:27:31.808Z,0.80
2019-05-09T20:30:01.492Z,0.93
2019-05-09T20:32:30.457Z,1.20
2019-05-09T20:34:59.742Z,1.00
2019-05-09T20:37:28.867Z,1.00
2019-05-09T20:39:57.962Z,1.03
2019-05-09T20:42:27.562Z,0.87
2019-05-09T20:44:56.661Z,0.90
2019-05-09T20:47:25.910Z,0.83
2019-05-09T20:49:55.249Z,0.90
2019-05-09T20:52:24.273Z,1.00
2019-05-09T20:54:53.442Z,0.80
2019-05-09T20:57:22.514Z,0.73
2019-05-09T20:59:51.682Z,0.70
2019-05-09T21:02:20.989Z,0.93
2019-05-09T21:04:50.274Z,0.90
2019-05-09T21:07:19.282Z,1.00
2019-05-09T21:09:48.307Z,1.20
2019-05-09T21:12:17.339Z,1.00
2019-05-09T21:14:46.434Z,0.83
2019-05-09T21:17:15.522Z,1.20
2019-05-09T21:19:44.855Z,1.00
2019-05-09T21:22:13.890Z,0.80
2019-05-09T21:24:43.056Z,1.07
2019-05-09T21:27:12.310Z,0.80
2019-05-09T21:29:41.658Z,0.83
2019-05-09T21:32:10.666Z,0.93
2019-05-09T21:34:39.563Z,0.80
2019-05-09T21:37:09.798Z,0.90
2019-05-09T21:39:39.030Z,0.90
2019-05-09T21:42:08.169Z,0.90
2019-05-09T21:44:37.070Z,1.00
2019-05-09T21:47:05.978Z,0.90
2019-05-09T21:49:34.870Z,0.87
2019-05-09T21:52:03.815Z,1.20
2019-05-09T21:54:32.770Z,0.90
2019-05-09T21:57:01.762Z,1.20
2019-05-09T21:59:31.978Z,0.80
2019-05-09T22:02:00.951Z,0.73
2019-05-09T22:04:29.932Z,0.70
2019-05-09T22:06:59.007Z,0.70
2019-05-09T22:09:27.905Z,0.80
2019-05-09T22:11:56.820Z,0.80
2019-05-09T22:14:25.850Z,1.00
2019-05-09T22:16:54.753Z,0.70
2019-05-09T22:19:23.721Z,0.90
2019-05-09T22:21:52.637Z,0.80
2019-05-09T22:24:21.471Z,0.80
2019-05-09T22:26:50.586Z,0.90
2019-05-09T22:29:25.267Z,0.93
2019-05-09T22:31:54.816Z,1.10
2019-05-09T22:34:23.710Z,1.07
2019-05-09T22:36:52.537Z,1.00
2019-05-09T22:39:21.518Z,0.83
2019-05-09T22:41:50.919Z,0.90
2019-05-09T22:44:19.913Z,0.90
2019-05-09T22:46:48.832Z,1.17
2019-05-09T22:49:17.694Z,0.83
2019-05-09T22:51:46.850Z,0.87
2019-05-09T22:54:15.978Z,0.97
2019-05-09T22:56:44.798Z,0.73
2019-05-09T22:59:13.639Z,1.07
2019-05-09T23:01:42.536Z,0.90
2019-05-09T23:04:11.520Z,0.60
2019-05-09T23:06:40.416Z,0.60
2019-05-09T23:09:09.637Z,1.03
2019-05-09T23:11:50.704Z,0.70
2019-05-09T23:14:19.614Z,0.63
2019-05-09T23:16:50.721Z,0.67
2019-05-09T23:19:19.091Z,0.80
2019-05-09T23:21:47.916Z,0.67
2019-05-09T23:24:28.103Z,1.03
2019-05-09T23:26:50.874Z,0.80
2019-05-09T23:29:19.797Z,0.60
2019-05-09T23:31:55.342Z,0.80
2019-05-09T23:34:24.570Z,0.70
2019-05-09T23:36:53.494Z,0.90
2019-05-09T23:39:24.720Z,0.90
2019-05-09T23:41:53.868Z,0.73
2019-05-09T23:44:23.058Z,0.70
2019-05-09T23:46:52.057Z,0.90
2019-05-09T23:49:21.221Z,0.63
2019-05-09T23:51:50.222Z,0.70
2019-05-09T23:54:47.245Z,0.50
2019-05-09T23:57:27.877Z,0.60
